HOURLY OBS INDEX

035

Central Highlands

BLACKWATER AIRPORT

Site: 035134
Alt: 193.0m
km of


  Time     Wind        Temp  DP   Baro     Rain since   Rain past  Vis(m), Cloud(base in m), Weather
  local        km/h                         9am  last   hr   10m    
Tue 20:00    S 15/ 17   9.6 -3.0  1022.6    0.0   0.0   0.0   0.0   ----- 
Tue 20:30    S 15/ 17   8.4 -2.8  1022.8    0.0   0.0   0.0   0.0   ----- 
Tue 21:00    S 15/ 17   9.5 -3.1  1022.8    0.0   0.0   0.0   0.0   ----- 
Tue 21:30    S 15/ 19   9.0 -3.2  1023.0    0.0   0.0   0.0   0.0   ----- 
Tue 22:00    S 15/ 17   8.7 -3.5  1023.0    0.0   0.0   0.0   0.0   ----- 
Tue 22:30    S 15/ 19  10.5 -2.8  1022.9    0.0   0.0   0.0   0.0   ----- 
Tue 23:00    S 17/ 20   8.8 -3.7  1023.1    0.0   0.0   0.0   0.0   ----- 
Tue 23:30    S 17/ 24  10.8 -2.6  1023.0    0.0   0.0   0.0   0.0   ----- 
Wed 00:00    S 19/ 28  12.4 -1.9  1022.8    0.0   0.0   0.0   0.0   ----- 
Wed 00:30  SSE 24/ 35  12.4 -2.2  1022.9    0.0   0.0   0.0   0.0   ----- 
Wed 01:00  SSE 22/ 32  12.2 -2.0  1022.9    0.0   0.0   0.0   0.0   ----- 
Wed 01:00  SSE 22/ 32  12.2 -2.0  1022.9    0.0   0.0  ----   0.0   ----- 

CLERMONT AIRPORT

Site: 035124
Alt: 270.3m
98km NNW of EMERALD


  Time     Wind        Temp  DP   Baro     Rain since   Rain past  Vis(m), Cloud(base in m), Weather
  local        km/h                         9am  last   hr   10m    
Tue 20:00    C  0/  0   6.6-10.6  1022.6   ----  ----  ----   0.0   ----- 
Tue 20:30    C  0/  0   5.4-10.8  1022.9   ----  ----  ----   0.0   ----- 
Tue 21:00    C  0/  0   4.9-10.4  1023.0   ----  ----  ----   0.0   ----- 
Tue 21:30    C  0/  4   4.1-10.7  1023.1   ----  ----  ----   0.0   ----- 
Tue 22:00    W  2/  4   3.2-10.1  1023.1   ----  ----  ----   0.0   ----- 
Tue 22:30  WSW  6/  7   3.0 -9.9  1023.0   ----  ----  ----   0.0   ----- 
Tue 23:00    C  0/  4   2.5-10.0  1023.1   ----  ----  ----   0.0   ----- 
Tue 23:30    C  0/  0   1.7-10.1  1022.9   ----  ----  ----   0.0   ----- 
Wed 00:00    C  0/  0   1.6-10.2  1023.0   ----  ----  ----   0.0   ----- 
Wed 00:30    C  0/  0   0.9-10.5  1022.9   ----  ----  ----   0.0   ----- 
Wed 01:00    C  0/  0   0.5-10.3  1022.6   ----  ----  ----   0.0   ----- 
Wed 01:00    C  0/  0   0.5-10.3  1022.6   ----  ----  ----   0.0   ----- 

EMERALD AIRPORT

Site: 035264
Alt: 189.4m
7km SSE of EMERALD


  Time     Wind        Temp  DP   Baro     Rain since   Rain past  Vis(m), Cloud(base in m), Weather
  local        km/h                         9am  last   hr   10m    
Tue 20:00  SSE  7/  9  10.9 -2.8  1022.6    0.0   0.0   0.0   0.0   10000 
Tue 20:30  SSE  9/ 11  10.5 -2.5  1022.7    0.0   0.0   0.0   0.0   10000 
Tue 21:00  SSE  9/ 11   9.5 -3.1  1022.9    0.0   0.0   0.0   0.0   10000 
Tue 21:30  SSE 13/ 15  10.4 -1.9  1022.9    0.0   0.0   0.0   0.0   10000 
Tue 22:00   SE 15/ 19  10.9 -2.1  1023.1    0.0   0.0   0.0   0.0   10000 
Tue 22:30   SE 19/ 24  11.4 -2.4  1023.1    0.0   0.0   0.0   0.0   10000 
Tue 23:00   SE 17/ 20  10.9 -2.5  1023.1    0.0   0.0   0.0   0.0   10000 
Tue 23:30   SE 19/ 22  10.3 -2.7  1023.1    0.0   0.0   0.0   0.0   10000 
Wed 00:00   SE 19/ 20  10.1 -2.5  1023.0    0.0   0.0   0.0   0.0   10000 
Wed 00:30   SE 17/ 20   9.2 -2.7  1023.2    0.0   0.0   0.0   0.0   10000 
Wed 01:00  SSE 22/ 28   9.4 -2.5  1023.0    0.0   0.0   0.0   0.0   10000 
Wed 01:00  SSE 22/ 28   9.4 -2.5  1023.0    0.0   0.0  ----   0.0   10000 

LOCHINGTON

Site: 035139
Alt: 267.2m
80km SW of EMERALD


  Time     Wind        Temp  DP   Baro     Rain since   Rain past  Vis(m), Cloud(base in m), Weather
  local        km/h                         9am  last   hr   10m    
Tue 20:00   SW  4/  6  10.6 -6.2  1022.5    0.0   0.0   0.0   0.0   ----- 
Tue 20:30  SSW  6/  9  10.2 -5.7  1022.6    0.0   0.0   0.0   0.0   ----- 
Tue 21:00   SW  7/ 11  11.5 -5.4  1022.7    0.0   0.0   0.0   0.0   ----- 
Tue 21:30   SW  4/ 11  11.2 -5.7  1022.8    0.0   0.0   0.0   0.0   ----- 
Tue 22:00   SW  2/  7  10.1 -6.2  1023.1    0.0   0.0   0.0   0.0   ----- 
Tue 22:30    W  6/  6   8.3 -6.6  1023.2    0.0   0.0   0.0   0.0   ----- 
Tue 23:00    W  6/  7   7.3 -6.1  1023.1    0.0   0.0   0.0   0.0   ----- 
Tue 23:30    W  4/  9   7.6 -6.9  1023.1    0.0   0.0   0.0   0.0   ----- 
Wed 00:00    W  6/  7   6.2 -6.7  1023.1    0.0   0.0   0.0   0.0   ----- 
Wed 00:30  WNW  4/  6   5.8 -6.7  1023.0    0.0   0.0   0.0   0.0   ----- 
Wed 01:00    W  4/  6   4.4 -6.8  1023.1    0.0   0.0   0.0   0.0   ----- 
Wed 01:00    W  4/  6   4.4 -6.8  1023.1    0.0   0.0  ----   0.0   ----- 

ROLLESTON AIRPORT

Site: 035129
Alt: 219.5m
101km SSW of BLACKWATER


  Time     Wind        Temp  DP   Baro     Rain since   Rain past  Vis(m), Cloud(base in m), Weather
  local        km/h                         9am  last   hr   10m    
Tue 20:00    S  6/  7   9.4 -3.2  1023.4    0.0   0.0   0.0   0.0   ----- 
Tue 20:30  SSE  7/  7   7.3 -2.4  1023.4    0.0   0.0   0.0   0.0   ----- 
Tue 21:00  SSE  9/ 11   7.0 -2.4  1023.4    0.0   0.0   0.0   0.0   ----- 
Tue 21:30  SSE  9/ 11   7.8 -2.2  1023.5    0.0   0.0   0.0   0.0   ----- 
Tue 22:00   SE  7/ 11   7.7 -2.0  1023.6    0.0   0.0   0.0   0.0   ----- 
Tue 22:30  SSE  9/ 11   7.8 -2.5  1023.6    0.0   0.0   0.0   0.0   ----- 
Tue 23:00  SSE  7/  9   6.7 -2.4  1023.8    0.0   0.0   0.0   0.0   ----- 
Tue 23:30    S  7/ 11   6.1 -3.0  1023.9    0.0   0.0   0.0   0.0   ----- 
Wed 00:00  SSE  7/  9   6.6 -2.5  1023.8    0.0   0.0   0.0   0.0   ----- 
Wed 00:30    S  7/  9   6.5 -2.4  1023.9    0.0   0.0   0.0   0.0   ----- 
Wed 01:00   SE  2/  4   5.8 -2.8  1024.0    0.0   0.0   0.0   0.0   ----- 
Wed 01:00   SE  2/  4   5.8 -2.8  1024.0    0.0   0.0  ----   0.0   -----